sensor_id;sensor_type;location;lat;lon;timestamp;P1;durP1;ratioP1;P2;durP2;ratioP2
47535;SDS011;33278;50.826;9.030;2022-07-23T00:00:23;6.30;;;5.70;;
47535;SDS011;33278;50.826;9.030;2022-07-23T00:02:53;5.35;;;4.93;;
47535;SDS011;33278;50.826;9.030;2022-07-23T00:05:23;6.95;;;5.82;;
47535;SDS011;33278;50.826;9.030;2022-07-23T00:07:54;6.40;;;5.80;;
47535;SDS011;33278;50.826;9.030;2022-07-23T00:10:24;7.28;;;5.85;;
47535;SDS011;33278;50.826;9.030;2022-07-23T00:12:54;6.25;;;5.75;;
47535;SDS011;33278;50.826;9.030;2022-07-23T00:15:24;7.22;;;5.88;;
47535;SDS011;33278;50.826;9.030;2022-07-23T00:17:55;6.38;;;5.78;;
47535;SDS011;33278;50.826;9.030;2022-07-23T00:20:25;6.90;;;6.30;;
47535;SDS011;33278;50.826;9.030;2022-07-23T00:22:55;6.78;;;6.18;;
47535;SDS011;33278;50.826;9.030;2022-07-23T00:25:26;6.72;;;6.13;;
47535;SDS011;33278;50.826;9.030;2022-07-23T00:27:57;6.55;;;5.95;;
47535;SDS011;33278;50.826;9.030;2022-07-23T00:30:29;6.05;;;5.55;;
47535;SDS011;33278;50.826;9.030;2022-07-23T00:33:01;6.07;;;5.57;;
47535;SDS011;33278;50.826;9.030;2022-07-23T00:35:33;6.85;;;6.25;;
47535;SDS011;33278;50.826;9.030;2022-07-23T00:38:06;7.20;;;6.38;;
47535;SDS011;33278;50.826;9.030;2022-07-23T00:40:38;6.70;;;6.00;;
47535;SDS011;33278;50.826;9.030;2022-07-23T00:43:09;9.85;;;6.85;;
47535;SDS011;33278;50.826;9.030;2022-07-23T00:45:39;9.30;;;6.85;;
47535;SDS011;33278;50.826;9.030;2022-07-23T00:48:11;9.20;;;6.47;;
47535;SDS011;33278;50.826;9.030;2022-07-23T00:50:42;8.80;;;7.25;;
47535;SDS011;33278;50.826;9.030;2022-07-23T00:53:12;8.77;;;5.70;;
47535;SDS011;33278;50.826;9.030;2022-07-23T00:55:43;6.03;;;5.53;;
47535;SDS011;33278;50.826;9.030;2022-07-23T00:58:13;8.13;;;6.72;;
47535;SDS011;33278;50.826;9.030;2022-07-23T01:00:45;6.93;;;6.30;;
47535;SDS011;33278;50.826;9.030;2022-07-23T01:03:16;7.55;;;6.22;;
47535;SDS011;33278;50.826;9.030;2022-07-23T01:05:46;7.97;;;6.93;;
47535;SDS011;33278;50.826;9.030;2022-07-23T01:08:16;7.57;;;6.30;;
47535;SDS011;33278;50.826;9.030;2022-07-23T01:10:47;7.07;;;6.28;;
47535;SDS011;33278;50.826;9.030;2022-07-23T01:13:18;6.65;;;6.05;;
47535;SDS011;33278;50.826;9.030;2022-07-23T01:15:49;6.72;;;5.95;;
47535;SDS011;33278;50.826;9.030;2022-07-23T01:18:19;7.55;;;6.78;;
47535;SDS011;33278;50.826;9.030;2022-07-23T01:20:50;7.00;;;6.38;;
47535;SDS011;33278;50.826;9.030;2022-07-23T01:23:20;7.05;;;6.30;;
47535;SDS011;33278;50.826;9.030;2022-07-23T01:25:53;7.38;;;6.70;;
47535;SDS011;33278;50.826;9.030;2022-07-23T01:28:25;6.88;;;6.28;;
47535;SDS011;33278;50.826;9.030;2022-07-23T01:30:55;6.80;;;6.20;;
47535;SDS011;33278;50.826;9.030;2022-07-23T01:33:25;6.07;;;5.50;;
47535;SDS011;33278;50.826;9.030;2022-07-23T01:35:56;7.35;;;6.68;;
47535;SDS011;33278;50.826;9.030;2022-07-23T01:38:26;6.40;;;5.90;;
47535;SDS011;33278;50.826;9.030;2022-07-23T01:40:56;6.45;;;5.85;;
47535;SDS011;33278;50.826;9.030;2022-07-23T01:43:26;7.28;;;6.28;;
47535;SDS011;33278;50.826;9.030;2022-07-23T01:45:57;6.93;;;6.32;;
47535;SDS011;33278;50.826;9.030;2022-07-23T01:48:27;7.90;;;6.32;;
47535;SDS011;33278;50.826;9.030;2022-07-23T01:50:57;6.55;;;5.95;;
47535;SDS011;33278;50.826;9.030;2022-07-23T01:53:28;6.50;;;6.00;;
47535;SDS011;33278;50.826;9.030;2022-07-23T01:56:01;7.53;;;6.75;;
47535;SDS011;33278;50.826;9.030;2022-07-23T01:58:31;6.97;;;6.38;;
47535;SDS011;33278;50.826;9.030;2022-07-23T02:01:02;6.93;;;6.18;;
47535;SDS011;33278;50.826;9.030;2022-07-23T02:03:32;6.43;;;5.93;;
47535;SDS011;33278;50.826;9.030;2022-07-23T02:06:03;6.72;;;6.15;;
47535;SDS011;33278;50.826;9.030;2022-07-23T02:08:33;10.40;;;5.88;;
47535;SDS011;33278;50.826;9.030;2022-07-23T02:11:03;6.80;;;5.85;;
47535;SDS011;33278;50.826;9.030;2022-07-23T02:13:34;6.82;;;6.22;;
47535;SDS011;33278;50.826;9.030;2022-07-23T02:16:04;8.77;;;6.55;;
47535;SDS011;33278;50.826;9.030;2022-07-23T02:18:35;6.60;;;5.88;;
47535;SDS011;33278;50.826;9.030;2022-07-23T02:21:05;7.18;;;6.57;;
47535;SDS011;33278;50.826;9.030;2022-07-23T02:23:35;7.45;;;6.70;;
47535;SDS011;33278;50.826;9.030;2022-07-23T02:26:06;6.95;;;6.00;;
47535;SDS011;33278;50.826;9.030;2022-07-23T02:28:37;8.65;;;6.82;;
47535;SDS011;33278;50.826;9.030;2022-07-23T02:31:07;7.68;;;6.95;;
47535;SDS011;33278;50.826;9.030;2022-07-23T02:33:37;7.53;;;6.55;;
47535;SDS011;33278;50.826;9.030;2022-07-23T02:36:08;7.28;;;6.57;;
47535;SDS011;33278;50.826;9.030;2022-07-23T02:38:38;7.10;;;6.50;;
47535;SDS011;33278;50.826;9.030;2022-07-23T02:41:09;6.28;;;5.78;;
47535;SDS011;33278;50.826;9.030;2022-07-23T02:43:39;7.63;;;6.40;;
47535;SDS011;33278;50.826;9.030;2022-07-23T02:46:09;7.15;;;6.35;;
47535;SDS011;33278;50.826;9.030;2022-07-23T02:48:40;6.97;;;5.65;;
47535;SDS011;33278;50.826;9.030;2022-07-23T02:51:10;7.70;;;6.28;;
47535;SDS011;33278;50.826;9.030;2022-07-23T02:53:40;6.43;;;5.82;;
47535;SDS011;33278;50.826;9.030;2022-07-23T02:56:11;6.68;;;6.07;;
47535;SDS011;33278;50.826;9.030;2022-07-23T02:58:41;7.03;;;6.43;;
47535;SDS011;33278;50.826;9.030;2022-07-23T03:01:11;5.90;;;5.38;;
47535;SDS011;33278;50.826;9.030;2022-07-23T03:03:42;7.82;;;7.00;;
47535;SDS011;33278;50.826;9.030;2022-07-23T03:06:12;7.63;;;6.60;;
47535;SDS011;33278;50.826;9.030;2022-07-23T03:08:43;6.70;;;6.10;;
47535;SDS011;33278;50.826;9.030;2022-07-23T03:11:13;6.85;;;5.93;;
47535;SDS011;33278;50.826;9.030;2022-07-23T03:13:44;7.22;;;5.78;;
47535;SDS011;33278;50.826;9.030;2022-07-23T03:16:14;11.82;;;6.22;;
47535;SDS011;33278;50.826;9.030;2022-07-23T03:18:44;6.97;;;6.25;;
47535;SDS011;33278;50.826;9.030;2022-07-23T03:21:15;7.40;;;5.65;;
47535;SDS011;33278;50.826;9.030;2022-07-23T03:23:45;6.70;;;5.97;;
47535;SDS011;33278;50.826;9.030;2022-07-23T03:26:15;6.68;;;5.93;;
47535;SDS011;33278;50.826;9.030;2022-07-23T03:28:45;7.00;;;6.20;;
47535;SDS011;33278;50.826;9.030;2022-07-23T03:31:16;6.47;;;5.90;;
47535;SDS011;33278;50.826;9.030;2022-07-23T03:33:46;8.02;;;5.72;;
47535;SDS011;33278;50.826;9.030;2022-07-23T03:36:16;6.47;;;5.80;;
47535;SDS011;33278;50.826;9.030;2022-07-23T03:38:46;9.85;;;6.15;;
47535;SDS011;33278;50.826;9.030;2022-07-23T03:41:17;7.95;;;6.05;;
47535;SDS011;33278;50.826;9.030;2022-07-23T03:43:48;6.13;;;5.53;;
47535;SDS011;33278;50.826;9.030;2022-07-23T03:46:18;9.90;;;6.82;;
47535;SDS011;33278;50.826;9.030;2022-07-23T03:48:48;8.10;;;6.43;;
47535;SDS011;33278;50.826;9.030;2022-07-23T03:51:19;13.27;;;7.03;;
47535;SDS011;33278;50.826;9.030;2022-07-23T03:53:49;8.25;;;6.22;;
47535;SDS011;33278;50.826;9.030;2022-07-23T03:56:19;9.30;;;5.82;;
47535;SDS011;33278;50.826;9.030;2022-07-23T03:58:50;11.23;;;6.43;;
47535;SDS011;33278;50.826;9.030;2022-07-23T04:01:20;7.20;;;6.03;;
47535;SDS011;33278;50.826;9.030;2022-07-23T04:03:50;8.52;;;6.13;;
47535;SDS011;33278;50.826;9.030;2022-07-23T04:06:21;9.95;;;8.98;;
47535;SDS011;33278;50.826;9.030;2022-07-23T04:08:51;11.45;;;9.77;;
47535;SDS011;33278;50.826;9.030;2022-07-23T04:11:21;11.18;;;10.10;;
47535;SDS011;33278;50.826;9.030;2022-07-23T04:13:52;10.65;;;9.65;;
47535;SDS011;33278;50.826;9.030;2022-07-23T04:16:22;11.40;;;10.25;;
47535;SDS011;33278;50.826;9.030;2022-07-23T04:18:52;9.32;;;8.50;;
47535;SDS011;33278;50.826;9.030;2022-07-23T04:21:23;11.48;;;10.38;;
47535;SDS011;33278;50.826;9.030;2022-07-23T04:23:54;10.63;;;9.60;;
47535;SDS011;33278;50.826;9.030;2022-07-23T04:26:24;10.50;;;9.60;;
47535;SDS011;33278;50.826;9.030;2022-07-23T04:28:55;11.35;;;10.25;;
47535;SDS011;33278;50.826;9.030;2022-07-23T04:31:25;10.50;;;9.52;;
47535;SDS011;33278;50.826;9.030;2022-07-23T04:33:55;10.85;;;8.95;;
47535;SDS011;33278;50.826;9.030;2022-07-23T04:36:25;10.32;;;9.38;;
47535;SDS011;33278;50.826;9.030;2022-07-23T04:38:56;10.30;;;9.05;;
47535;SDS011;33278;50.826;9.030;2022-07-23T04:41:26;10.93;;;9.68;;
47535;SDS011;33278;50.826;9.030;2022-07-23T04:43:56;10.75;;;9.75;;
47535;SDS011;33278;50.826;9.030;2022-07-23T04:46:27;9.52;;;8.32;;
47535;SDS011;33278;50.826;9.030;2022-07-23T04:48:57;10.35;;;9.07;;
47535;SDS011;33278;50.826;9.030;2022-07-23T04:51:28;11.68;;;10.52;;
47535;SDS011;33278;50.826;9.030;2022-07-23T04:53:59;11.75;;;10.45;;
47535;SDS011;33278;50.826;9.030;2022-07-23T04:56:29;10.68;;;9.77;;
47535;SDS011;33278;50.826;9.030;2022-07-23T04:58:59;11.13;;;10.02;;
47535;SDS011;33278;50.826;9.030;2022-07-23T05:01:29;15.27;;;10.77;;
47535;SDS011;33278;50.826;9.030;2022-07-23T05:04:00;10.43;;;9.23;;
47535;SDS011;33278;50.826;9.030;2022-07-23T05:06:30;10.07;;;9.07;;
47535;SDS011;33278;50.826;9.030;2022-07-23T05:09:00;10.82;;;9.65;;
47535;SDS011;33278;50.826;9.030;2022-07-23T05:11:31;10.20;;;9.30;;
47535;SDS011;33278;50.826;9.030;2022-07-23T05:14:01;10.25;;;9.25;;
47535;SDS011;33278;50.826;9.030;2022-07-23T05:16:32;10.10;;;9.20;;
47535;SDS011;33278;50.826;9.030;2022-07-23T05:19:02;9.80;;;8.90;;
47535;SDS011;33278;50.826;9.030;2022-07-23T05:21:33;11.38;;;10.13;;
47535;SDS011;33278;50.826;9.030;2022-07-23T05:24:03;12.00;;;9.85;;
47535;SDS011;33278;50.826;9.030;2022-07-23T05:26:33;10.40;;;9.50;;
47535;SDS011;33278;50.826;9.030;2022-07-23T05:29:04;11.32;;;9.75;;
47535;SDS011;33278;50.826;9.030;2022-07-23T05:31:34;10.73;;;9.63;;
47535;SDS011;33278;50.826;9.030;2022-07-23T05:34:04;11.75;;;8.82;;
47535;SDS011;33278;50.826;9.030;2022-07-23T05:36:35;12.23;;;8.65;;
47535;SDS011;33278;50.826;9.030;2022-07-23T05:39:05;10.20;;;8.68;;
47535;SDS011;33278;50.826;9.030;2022-07-23T05:41:35;9.45;;;8.55;;
47535;SDS011;33278;50.826;9.030;2022-07-23T05:44:06;9.40;;;8.35;;
47535;SDS011;33278;50.826;9.030;2022-07-23T05:46:36;10.00;;;8.02;;
47535;SDS011;33278;50.826;9.030;2022-07-23T05:49:06;9.85;;;7.90;;
47535;SDS011;33278;50.826;9.030;2022-07-23T05:51:37;11.98;;;8.25;;
47535;SDS011;33278;50.826;9.030;2022-07-23T05:54:07;11.07;;;7.93;;
47535;SDS011;33278;50.826;9.030;2022-07-23T05:56:37;11.60;;;8.07;;
47535;SDS011;33278;50.826;9.030;2022-07-23T05:59:08;8.20;;;7.35;;
47535;SDS011;33278;50.826;9.030;2022-07-23T06:01:38;13.40;;;8.55;;
47535;SDS011;33278;50.826;9.030;2022-07-23T06:04:08;10.82;;;8.30;;
47535;SDS011;33278;50.826;9.030;2022-07-23T06:06:39;8.70;;;7.38;;
47535;SDS011;33278;50.826;9.030;2022-07-23T06:09:09;16.65;;;8.75;;
47535;SDS011;33278;50.826;9.030;2022-07-23T06:11:41;10.95;;;7.57;;
47535;SDS011;33278;50.826;9.030;2022-07-23T06:14:11;9.10;;;7.93;;
47535;SDS011;33278;50.826;9.030;2022-07-23T06:16:41;10.02;;;8.38;;
47535;SDS011;33278;50.826;9.030;2022-07-23T06:19:12;9.88;;;8.88;;
47535;SDS011;33278;50.826;9.030;2022-07-23T06:21:43;10.32;;;8.10;;
47535;SDS011;33278;50.826;9.030;2022-07-23T06:24:13;8.20;;;7.40;;
47535;SDS011;33278;50.826;9.030;2022-07-23T06:26:43;8.30;;;7.50;;
47535;SDS011;33278;50.826;9.030;2022-07-23T06:29:14;8.00;;;7.18;;
47535;SDS011;33278;50.826;9.030;2022-07-23T06:31:44;10.02;;;7.85;;
47535;SDS011;33278;50.826;9.030;2022-07-23T06:34:15;9.30;;;7.20;;
47535;SDS011;33278;50.826;9.030;2022-07-23T06:36:45;10.63;;;7.20;;
47535;SDS011;33278;50.826;9.030;2022-07-23T06:39:16;8.88;;;7.93;;
47535;SDS011;33278;50.826;9.030;2022-07-23T06:41:46;8.05;;;7.35;;
47535;SDS011;33278;50.826;9.030;2022-07-23T06:44:16;7.53;;;6.82;;
47535;SDS011;33278;50.826;9.030;2022-07-23T06:46:47;8.63;;;7.72;;
47535;SDS011;33278;50.826;9.030;2022-07-23T06:49:17;6.85;;;6.28;;
47535;SDS011;33278;50.826;9.030;2022-07-23T06:51:48;6.90;;;6.22;;
47535;SDS011;33278;50.826;9.030;2022-07-23T06:54:18;10.40;;;6.40;;
47535;SDS011;33278;50.826;9.030;2022-07-23T06:56:48;9.68;;;6.93;;
47535;SDS011;33278;50.826;9.030;2022-07-23T06:59:19;7.65;;;6.95;;
47535;SDS011;33278;50.826;9.030;2022-07-23T07:01:49;7.18;;;6.38;;
47535;SDS011;33278;50.826;9.030;2022-07-23T07:04:19;7.63;;;6.80;;
47535;SDS011;33278;50.826;9.030;2022-07-23T07:06:49;8.43;;;6.57;;
47535;SDS011;33278;50.826;9.030;2022-07-23T07:09:20;6.88;;;6.18;;
47535;SDS011;33278;50.826;9.030;2022-07-23T07:11:50;8.38;;;7.47;;
47535;SDS011;33278;50.826;9.030;2022-07-23T07:14:20;6.82;;;6.15;;
47535;SDS011;33278;50.826;9.030;2022-07-23T07:16:51;6.28;;;5.78;;
47535;SDS011;33278;50.826;9.030;2022-07-23T07:19:21;7.32;;;6.15;;
47535;SDS011;33278;50.826;9.030;2022-07-23T07:21:52;6.82;;;6.13;;
47535;SDS011;33278;50.826;9.030;2022-07-23T07:24:22;11.05;;;7.18;;
47535;SDS011;33278;50.826;9.030;2022-07-23T07:26:52;8.00;;;6.70;;
47535;SDS011;33278;50.826;9.030;2022-07-23T07:29:23;6.55;;;5.97;;
47535;SDS011;33278;50.826;9.030;2022-07-23T07:31:53;6.68;;;5.53;;
47535;SDS011;33278;50.826;9.030;2022-07-23T07:34:24;6.28;;;5.68;;
47535;SDS011;33278;50.826;9.030;2022-07-23T07:36:54;6.38;;;5.55;;
47535;SDS011;33278;50.826;9.030;2022-07-23T07:39:24;6.40;;;5.15;;
47535;SDS011;33278;50.826;9.030;2022-07-23T07:41:55;6.32;;;5.30;;
47535;SDS011;33278;50.826;9.030;2022-07-23T07:44:26;7.03;;;6.28;;
47535;SDS011;33278;50.826;9.030;2022-07-23T07:46:56;7.43;;;5.85;;
47535;SDS011;33278;50.826;9.030;2022-07-23T07:49:26;6.90;;;5.13;;
47535;SDS011;33278;50.826;9.030;2022-07-23T07:51:57;7.45;;;5.35;;
47535;SDS011;33278;50.826;9.030;2022-07-23T07:54:27;7.78;;;5.35;;
47535;SDS011;33278;50.826;9.030;2022-07-23T07:56:57;8.10;;;4.72;;
47535;SDS011;33278;50.826;9.030;2022-07-23T07:59:28;8.55;;;4.28;;
47535;SDS011;33278;50.826;9.030;2022-07-23T08:01:59;4.38;;;3.75;;
47535;SDS011;33278;50.826;9.030;2022-07-23T08:04:29;6.05;;;4.25;;
47535;SDS011;33278;50.826;9.030;2022-07-23T08:07:00;4.70;;;3.85;;
47535;SDS011;33278;50.826;9.030;2022-07-23T08:09:30;4.55;;;3.88;;
47535;SDS011;33278;50.826;9.030;2022-07-23T08:12:00;5.13;;;3.95;;
47535;SDS011;33278;50.826;9.030;2022-07-23T08:14:31;5.55;;;3.95;;
47535;SDS011;33278;50.826;9.030;2022-07-23T08:17:01;10.75;;;3.78;;
47535;SDS011;33278;50.826;9.030;2022-07-23T08:19:31;4.55;;;4.15;;
47535;SDS011;33278;50.826;9.030;2022-07-23T08:22:01;6.45;;;4.40;;
47535;SDS011;33278;50.826;9.030;2022-07-23T08:24:32;4.43;;;3.95;;
47535;SDS011;33278;50.826;9.030;2022-07-23T08:27:02;7.28;;;4.57;;
47535;SDS011;33278;50.826;9.030;2022-07-23T08:29:33;3.80;;;3.47;;
47535;SDS011;33278;50.826;9.030;2022-07-23T08:32:03;3.92;;;3.58;;
47535;SDS011;33278;50.826;9.030;2022-07-23T08:34:34;5.15;;;3.17;;
47535;SDS011;33278;50.826;9.030;2022-07-23T08:37:04;4.40;;;2.97;;
47535;SDS011;33278;50.826;9.030;2022-07-23T08:39:34;7.82;;;3.67;;
47535;SDS011;33278;50.826;9.030;2022-07-23T08:42:05;4.53;;;3.30;;
47535;SDS011;33278;50.826;9.030;2022-07-23T08:44:37;5.55;;;3.83;;
47535;SDS011;33278;50.826;9.030;2022-07-23T08:47:14;9.98;;;3.83;;
47535;SDS011;33278;50.826;9.030;2022-07-23T08:49:45;4.72;;;3.05;;
47535;SDS011;33278;50.826;9.030;2022-07-23T08:52:16;8.02;;;3.47;;
47535;SDS011;33278;50.826;9.030;2022-07-23T08:54:46;8.13;;;3.42;;
47535;SDS011;33278;50.826;9.030;2022-07-23T08:57:17;8.32;;;4.72;;
47535;SDS011;33278;50.826;9.030;2022-07-23T08:59:47;5.40;;;3.47;;
47535;SDS011;33278;50.826;9.030;2022-07-23T09:02:17;4.80;;;3.75;;
47535;SDS011;33278;50.826;9.030;2022-07-23T09:04:48;4.28;;;3.85;;
47535;SDS011;33278;50.826;9.030;2022-07-23T09:07:18;3.95;;;3.55;;
47535;SDS011;33278;50.826;9.030;2022-07-23T09:09:53;5.32;;;3.90;;
47535;SDS011;33278;50.826;9.030;2022-07-23T09:12:35;5.45;;;3.97;;
47535;SDS011;33278;50.826;9.030;2022-07-23T09:15:07;4.43;;;3.55;;
47535;SDS011;33278;50.826;9.030;2022-07-23T09:17:42;3.97;;;3.28;;
47535;SDS011;33278;50.826;9.030;2022-07-23T09:20:14;4.38;;;3.47;;
47535;SDS011;33278;50.826;9.030;2022-07-23T09:22:47;5.63;;;3.38;;
47535;SDS011;33278;50.826;9.030;2022-07-23T09:25:19;4.00;;;3.40;;
47535;SDS011;33278;50.826;9.030;2022-07-23T09:30:25;3.78;;;3.15;;
47535;SDS011;33278;50.826;9.030;2022-07-23T09:33:07;2.72;;;2.53;;
47535;SDS011;33278;50.826;9.030;2022-07-23T09:38:21;6.50;;;3.47;;
47535;SDS011;33278;50.826;9.030;2022-07-23T09:41:07;2.90;;;2.70;;
47535;SDS011;33278;50.826;9.030;2022-07-23T09:43:38;3.63;;;3.30;;
47535;SDS011;33278;50.826;9.030;2022-07-23T09:48:56;3.30;;;2.80;;
47535;SDS011;33278;50.826;9.030;2022-07-23T09:51:26;3.13;;;2.83;;
47535;SDS011;33278;50.826;9.030;2022-07-23T09:54:03;3.90;;;3.42;;
47535;SDS011;33278;50.826;9.030;2022-07-23T09:56:34;3.40;;;3.05;;
47535;SDS011;33278;50.826;9.030;2022-07-23T10:01:40;3.95;;;3.53;;
47535;SDS011;33278;50.826;9.030;2022-07-23T10:04:13;3.95;;;3.10;;
47535;SDS011;33278;50.826;9.030;2022-07-23T10:06:44;3.83;;;3.50;;
47535;SDS011;33278;50.826;9.030;2022-07-23T10:09:15;3.40;;;3.10;;
47535;SDS011;33278;50.826;9.030;2022-07-23T10:11:51;3.00;;;2.80;;
47535;SDS011;33278;50.826;9.030;2022-07-23T10:14:25;3.35;;;3.10;;
47535;SDS011;33278;50.826;9.030;2022-07-23T10:16:56;3.40;;;3.10;;
47535;SDS011;33278;50.826;9.030;2022-07-23T10:19:27;3.20;;;2.90;;
47535;SDS011;33278;50.826;9.030;2022-07-23T10:22:00;3.38;;;3.08;;
47535;SDS011;33278;50.826;9.030;2022-07-23T10:24:38;3.33;;;3.03;;
47535;SDS011;33278;50.826;9.030;2022-07-23T10:32:49;4.15;;;3.30;;
47535;SDS011;33278;50.826;9.030;2022-07-23T10:38:32;14.65;;;4.25;;
47535;SDS011;33278;50.826;9.030;2022-07-23T10:41:07;18.30;;;5.53;;
47535;SDS011;33278;50.826;9.030;2022-07-23T10:43:37;23.83;;;5.15;;
47535;SDS011;33278;50.826;9.030;2022-07-23T10:46:21;7.95;;;3.85;;
47535;SDS011;33278;50.826;9.030;2022-07-23T10:49:22;7.40;;;4.35;;
47535;SDS011;33278;50.826;9.030;2022-07-23T10:54:56;8.30;;;3.58;;
47535;SDS011;33278;50.826;9.030;2022-07-23T10:57:49;8.13;;;3.97;;
47535;SDS011;33278;50.826;9.030;2022-07-23T11:00:21;9.88;;;3.70;;
47535;SDS011;33278;50.826;9.030;2022-07-23T11:02:53;9.82;;;3.72;;
47535;SDS011;33278;50.826;9.030;2022-07-23T11:05:26;6.25;;;3.60;;
47535;SDS011;33278;50.826;9.030;2022-07-23T11:08:13;6.72;;;3.95;;
47535;SDS011;33278;50.826;9.030;2022-07-23T11:24:08;3.85;;;3.55;;
47535;SDS011;33278;50.826;9.030;2022-07-23T11:26:48;4.88;;;3.90;;
47535;SDS011;33278;50.826;9.030;2022-07-23T11:32:02;3.55;;;3.25;;
47535;SDS011;33278;50.826;9.030;2022-07-23T11:37:09;3.87;;;3.57;;
47535;SDS011;33278;50.826;9.030;2022-07-23T11:39:41;3.88;;;3.50;;
47535;SDS011;33278;50.826;9.030;2022-07-23T11:42:14;4.65;;;3.55;;
47535;SDS011;33278;50.826;9.030;2022-07-23T11:44:47;4.43;;;3.40;;
47535;SDS011;33278;50.826;9.030;2022-07-23T11:47:24;4.10;;;3.70;;
47535;SDS011;33278;50.826;9.030;2022-07-23T11:49:56;4.90;;;3.63;;
47535;SDS011;33278;50.826;9.030;2022-07-23T11:52:28;3.90;;;3.60;;
47535;SDS011;33278;50.826;9.030;2022-07-23T11:55:00;4.22;;;3.85;;
47535;SDS011;33278;50.826;9.030;2022-07-23T11:57:34;5.15;;;4.03;;
47535;SDS011;33278;50.826;9.030;2022-07-23T12:02:41;3.97;;;3.57;;
47535;SDS011;33278;50.826;9.030;2022-07-23T12:05:14;4.32;;;3.80;;
47535;SDS011;33278;50.826;9.030;2022-07-23T12:07:46;8.63;;;4.22;;
47535;SDS011;33278;50.826;9.030;2022-07-23T12:12:58;5.13;;;3.72;;
47535;SDS011;33278;50.826;9.030;2022-07-23T12:15:31;4.30;;;3.88;;
47535;SDS011;33278;50.826;9.030;2022-07-23T12:18:11;3.97;;;3.67;;
47535;SDS011;33278;50.826;9.030;2022-07-23T12:20:44;4.00;;;3.70;;
47535;SDS011;33278;50.826;9.030;2022-07-23T12:23:16;5.90;;;4.13;;
47535;SDS011;33278;50.826;9.030;2022-07-23T12:25:49;3.55;;;3.25;;
47535;SDS011;33278;50.826;9.030;2022-07-23T12:28:21;11.27;;;4.10;;
47535;SDS011;33278;50.826;9.030;2022-07-23T12:30:57;4.47;;;4.05;;
47535;SDS011;33278;50.826;9.030;2022-07-23T12:33:29;4.18;;;3.88;;
47535;SDS011;33278;50.826;9.030;2022-07-23T12:36:04;4.13;;;3.75;;
47535;SDS011;33278;50.826;9.030;2022-07-23T12:38:38;4.25;;;3.90;;
47535;SDS011;33278;50.826;9.030;2022-07-23T12:41:10;3.65;;;3.35;;
47535;SDS011;33278;50.826;9.030;2022-07-23T12:43:42;4.43;;;4.03;;
47535;SDS011;33278;50.826;9.030;2022-07-23T12:46:15;7.32;;;3.75;;
47535;SDS011;33278;50.826;9.030;2022-07-23T12:51:26;4.60;;;3.63;;
47535;SDS011;33278;50.826;9.030;2022-07-23T12:54:05;4.70;;;4.30;;
47535;SDS011;33278;50.826;9.030;2022-07-23T12:56:39;3.80;;;3.50;;
47535;SDS011;33278;50.826;9.030;2022-07-23T12:59:14;4.45;;;4.05;;
47535;SDS011;33278;50.826;9.030;2022-07-23T13:01:56;4.22;;;3.92;;
47535;SDS011;33278;50.826;9.030;2022-07-23T13:04:28;3.75;;;3.45;;
47535;SDS011;33278;50.826;9.030;2022-07-23T13:07:01;4.22;;;3.83;;
47535;SDS011;33278;50.826;9.030;2022-07-23T13:09:32;3.22;;;3.03;;
47535;SDS011;33278;50.826;9.030;2022-07-23T13:12:03;4.00;;;3.70;;
47535;SDS011;33278;50.826;9.030;2022-07-23T13:14:34;3.97;;;3.65;;
47535;SDS011;33278;50.826;9.030;2022-07-23T13:17:04;3.60;;;3.30;;
47535;SDS011;33278;50.826;9.030;2022-07-23T13:19:34;3.88;;;3.58;;
47535;SDS011;33278;50.826;9.030;2022-07-23T13:22:05;4.05;;;3.70;;
47535;SDS011;33278;50.826;9.030;2022-07-23T13:24:35;3.33;;;3.13;;
47535;SDS011;33278;50.826;9.030;2022-07-23T13:27:05;3.30;;;3.00;;
47535;SDS011;33278;50.826;9.030;2022-07-23T13:29:38;3.92;;;3.17;;
47535;SDS011;33278;50.826;9.030;2022-07-23T13:32:08;3.90;;;3.50;;
47535;SDS011;33278;50.826;9.030;2022-07-23T13:34:38;3.65;;;3.35;;
47535;SDS011;33278;50.826;9.030;2022-07-23T13:37:09;3.70;;;3.40;;
47535;SDS011;33278;50.826;9.030;2022-07-23T13:39:39;4.00;;;3.67;;
47535;SDS011;33278;50.826;9.030;2022-07-23T13:42:09;3.58;;;3.28;;
47535;SDS011;33278;50.826;9.030;2022-07-23T13:44:40;4.13;;;3.72;;
47535;SDS011;33278;50.826;9.030;2022-07-23T13:47:10;3.78;;;3.47;;
47535;SDS011;33278;50.826;9.030;2022-07-23T13:49:40;3.70;;;3.40;;
47535;SDS011;33278;50.826;9.030;2022-07-23T13:52:11;3.58;;;3.28;;
47535;SDS011;33278;50.826;9.030;2022-07-23T13:54:41;3.63;;;3.20;;
47535;SDS011;33278;50.826;9.030;2022-07-23T13:57:11;3.78;;;3.47;;
47535;SDS011;33278;50.826;9.030;2022-07-23T13:59:42;3.85;;;3.55;;
47535;SDS011;33278;50.826;9.030;2022-07-23T14:02:13;3.75;;;3.45;;
47535;SDS011;33278;50.826;9.030;2022-07-23T14:04:46;4.55;;;3.60;;
47535;SDS011;33278;50.826;9.030;2022-07-23T14:07:17;3.15;;;2.92;;
47535;SDS011;33278;50.826;9.030;2022-07-23T14:09:48;6.25;;;3.92;;
47535;SDS011;33278;50.826;9.030;2022-07-23T14:12:18;4.05;;;3.60;;
47535;SDS011;33278;50.826;9.030;2022-07-23T14:14:48;4.15;;;3.78;;
47535;SDS011;33278;50.826;9.030;2022-07-23T14:17:19;3.88;;;3.50;;
47535;SDS011;33278;50.826;9.030;2022-07-23T14:19:49;6.10;;;3.80;;
47535;SDS011;33278;50.826;9.030;2022-07-23T14:22:20;5.88;;;3.38;;
47535;SDS011;33278;50.826;9.030;2022-07-23T14:24:50;3.45;;;3.15;;
47535;SDS011;33278;50.826;9.030;2022-07-23T14:27:21;3.70;;;3.40;;
47535;SDS011;33278;50.826;9.030;2022-07-23T14:29:53;3.63;;;3.30;;
47535;SDS011;33278;50.826;9.030;2022-07-23T14:34:54;4.43;;;3.50;;
47535;SDS011;33278;50.826;9.030;2022-07-23T14:37:25;4.00;;;3.70;;
47535;SDS011;33278;50.826;9.030;2022-07-23T14:39:55;3.83;;;3.53;;
47535;SDS011;33278;50.826;9.030;2022-07-23T14:42:25;4.53;;;3.55;;
47535;SDS011;33278;50.826;9.030;2022-07-23T14:44:56;3.58;;;3.28;;
47535;SDS011;33278;50.826;9.030;2022-07-23T14:47:26;4.55;;;2.90;;
47535;SDS011;33278;50.826;9.030;2022-07-23T14:49:57;3.70;;;3.40;;
47535;SDS011;33278;50.826;9.030;2022-07-23T14:52:27;4.35;;;3.63;;
47535;SDS011;33278;50.826;9.030;2022-07-23T14:54:58;3.88;;;3.58;;
47535;SDS011;33278;50.826;9.030;2022-07-23T14:57:28;3.80;;;3.47;;
47535;SDS011;33278;50.826;9.030;2022-07-23T14:59:58;7.57;;;3.60;;
47535;SDS011;33278;50.826;9.030;2022-07-23T15:02:29;3.78;;;3.15;;
47535;SDS011;33278;50.826;9.030;2022-07-23T15:04:59;3.80;;;3.50;;
47535;SDS011;33278;50.826;9.030;2022-07-23T15:07:31;3.83;;;3.43;;
47535;SDS011;33278;50.826;9.030;2022-07-23T15:10:01;3.80;;;3.50;;
47535;SDS011;33278;50.826;9.030;2022-07-23T15:12:31;3.97;;;3.67;;
47535;SDS011;33278;50.826;9.030;2022-07-23T15:15:02;3.80;;;3.50;;
47535;SDS011;33278;50.826;9.030;2022-07-23T15:17:34;3.75;;;3.45;;
47535;SDS011;33278;50.826;9.030;2022-07-23T15:20:04;3.65;;;3.35;;
47535;SDS011;33278;50.826;9.030;2022-07-23T15:22:35;4.00;;;3.70;;
47535;SDS011;33278;50.826;9.030;2022-07-23T15:25:05;3.88;;;3.53;;
47535;SDS011;33278;50.826;9.030;2022-07-23T15:27:36;3.67;;;3.38;;
47535;SDS011;33278;50.826;9.030;2022-07-23T15:30:07;5.10;;;3.55;;
47535;SDS011;33278;50.826;9.030;2022-07-23T15:32:38;3.70;;;3.25;;
47535;SDS011;33278;50.826;9.030;2022-07-23T15:35:08;8.10;;;3.47;;
47535;SDS011;33278;50.826;9.030;2022-07-23T15:37:39;4.88;;;3.85;;
47535;SDS011;33278;50.826;9.030;2022-07-23T15:40:10;3.85;;;3.50;;
47535;SDS011;33278;50.826;9.030;2022-07-23T15:42:41;27.30;;;5.72;;
47535;SDS011;33278;50.826;9.030;2022-07-23T15:45:11;4.68;;;4.28;;
47535;SDS011;33278;50.826;9.030;2022-07-23T15:47:42;8.05;;;4.18;;
47535;SDS011;33278;50.826;9.030;2022-07-23T15:50:13;7.20;;;3.53;;
47535;SDS011;33278;50.826;9.030;2022-07-23T15:52:43;10.23;;;4.15;;
47535;SDS011;33278;50.826;9.030;2022-07-23T15:55:13;4.28;;;3.85;;
47535;SDS011;33278;50.826;9.030;2022-07-23T15:57:43;9.82;;;3.90;;
47535;SDS011;33278;50.826;9.030;2022-07-23T16:00:14;7.10;;;4.30;;